Time;durP1;ratioP1;P1;durP2;ratioP2;P2;SDS_P1;SDS_P2;PMS_P1;PMS_P2;Temp;Humidity;BMP_temperature;BMP_pressure;BME280_temperature;BME280_humidity;BME280_pressure;Samples;Min_cycle;Max_cycle;Signal;HPM_P1;HPM_P2
2021/07/11 00:00:05;;;;;;;55.70;31.73;;;;;;;;;;5105213;28;20032;-66
2021/07/11 00:02:33;;;;;;;56.85;31.70;;;;;;;;;;5099148;28;20036;-66
2021/07/11 00:04:59;;;;;;;55.42;31.27;;;;;;;;;;5110495;28;20041;-66
2021/07/11 00:07:25;;;;;;;64.45;33.90;;;;;;;;;;5111556;28;20323;-66
2021/07/11 00:09:51;;;;;;;65.85;33.78;;;;;;;;;;5110775;28;20554;-66
2021/07/11 00:12:18;;;;;;;61.47;32.95;;;;;;;;;;5106118;28;20078;-66
2021/07/11 00:14:44;;;;;;;65.65;33.22;;;;;;;;;;5111107;28;20023;-66
2021/07/11 00:17:10;;;;;;;65.15;35.33;;;;;;;;;;5091873;28;20054;-66
2021/07/11 00:19:36;;;;;;;70.30;33.88;;;;;;;;;;5110676;28;20024;-66
2021/07/11 00:22:02;;;;;;;66.20;34.88;;;;;;;;;;5109578;28;20039;-66
2021/07/11 00:24:28;;;;;;;71.57;35.20;;;;;;;;;;5110277;28;20028;-66
2021/07/11 00:26:54;;;;;;;64.72;34.10;;;;;;;;;;5110300;28;20099;-66
2021/07/11 00:29:20;;;;;;;63.05;33.28;;;;;;;;;;5110381;28;20038;-66
2021/07/11 00:31:47;;;;;;;64.53;34.63;;;;;;;;;;5109390;28;20030;-66
2021/07/11 00:34:13;;;;;;;70.45;37.05;;;;;;;;;;5111147;28;20020;-65
2021/07/11 00:36:40;;;;;;;65.32;34.92;;;;;;;;;;5110392;28;20023;-66
2021/07/11 00:39:06;;;;;;;68.40;36.88;;;;;;;;;;5109815;28;20027;-66
2021/07/11 00:41:37;;;;;;;78.72;37.70;;;;;;;;;;5090273;28;20027;-66
2021/07/11 00:44:03;;;;;;;75.10;37.78;;;;;;;;;;5110823;28;20034;-66
2021/07/11 00:46:30;;;;;;;79.72;40.83;;;;;;;;;;5110169;28;20031;-66
2021/07/11 00:48:56;;;;;;;74.00;40.10;;;;;;;;;;5109654;28;20019;-66
2021/07/11 00:51:22;;;;;;;81.28;43.55;;;;;;;;;;5090900;28;20036;-66
2021/07/11 00:53:52;;;;;;;75.00;40.92;;;;;;;;;;5110833;28;20096;-66
2021/07/11 00:56:19;;;;;;;78.00;40.58;;;;;;;;;;5108666;28;20024;-66
2021/07/11 00:58:45;;;;;;;74.78;39.03;;;;;;;;;;5108769;27;20031;-66
2021/07/11 01:01:13;;;;;;;70.78;40.63;;;;;;;;;;5109420;28;20027;-66
2021/07/11 01:03:40;;;;;;;64.18;36.47;;;;;;;;;;5110104;28;20102;-66
2021/07/11 01:06:07;;;;;;;75.07;36.72;;;;;;;;;;5109358;28;20087;-66
2021/07/11 01:08:33;;;;;;;69.20;35.65;;;;;;;;;;5109815;28;20028;-66
2021/07/11 01:11:02;;;;;;;68.25;37.63;;;;;;;;;;5109701;28;20027;-66
2021/07/11 01:13:28;;;;;;;73.93;38.90;;;;;;;;;;5109973;28;20024;-66
2021/07/11 01:15:57;;;;;;;63.45;35.28;;;;;;;;;;5091202;28;20073;-66
2021/07/11 01:18:24;;;;;;;61.45;32.13;;;;;;;;;;5113191;27;20031;-66
2021/07/11 01:20:52;;;;;;;55.50;33.17;;;;;;;;;;5112871;28;20031;-66
2021/07/11 01:23:24;;;;;;;60.70;31.48;;;;;;;;;;5114732;28;20016;-66
2021/07/11 01:25:51;;;;;;;52.95;30.45;;;;;;;;;;5095804;28;20031;-66
2021/07/11 01:28:18;;;;;;;51.47;30.95;;;;;;;;;;5095247;28;20028;-66
2021/07/11 01:30:45;;;;;;;53.97;32.08;;;;;;;;;;5113232;28;20035;-66
2021/07/11 01:33:12;;;;;;;53.00;28.40;;;;;;;;;;5095268;28;20027;-66
2021/07/11 01:35:39;;;;;;;48.35;28.73;;;;;;;;;;5113968;27;20019;-66
2021/07/11 01:38:06;;;;;;;55.95;27.85;;;;;;;;;;5113744;28;20099;-66
2021/07/11 01:40:32;;;;;;;44.00;27.38;;;;;;;;;;5096143;28;20631;-66
2021/07/11 01:42:58;;;;;;;46.35;25.58;;;;;;;;;;5111993;28;20026;-66
2021/07/11 01:45:24;;;;;;;48.78;25.70;;;;;;;;;;5113423;28;20028;-66
2021/07/11 01:47:51;;;;;;;43.35;24.40;;;;;;;;;;5111507;28;20602;-66
2021/07/11 01:50:18;;;;;;;49.80;25.50;;;;;;;;;;5113961;28;20027;-66
2021/07/11 01:52:45;;;;;;;42.58;25.40;;;;;;;;;;5112724;28;20035;-66
2021/07/11 01:55:12;;;;;;;41.10;23.88;;;;;;;;;;5112626;28;20077;-66
2021/07/11 01:57:38;;;;;;;40.80;23.80;;;;;;;;;;5112769;28;20531;-66
2021/07/11 02:00:12;;;;;;;40.22;23.52;;;;;;;;;;5112623;28;20039;-66
2021/07/11 02:02:38;;;;;;;39.17;21.33;;;;;;;;;;5093591;28;20052;-66
2021/07/11 02:05:08;;;;;;;39.28;22.20;;;;;;;;;;5113153;28;20073;-66
2021/07/11 02:07:34;;;;;;;38.25;23.52;;;;;;;;;;5112860;28;20125;-66
2021/07/11 02:10:01;;;;;;;40.80;24.98;;;;;;;;;;5113594;28;20503;-66
2021/07/11 02:12:29;;;;;;;39.03;21.63;;;;;;;;;;5108816;28;20021;-66
2021/07/11 02:14:55;;;;;;;38.60;22.27;;;;;;;;;;5108761;28;20030;-66
2021/07/11 02:17:23;;;;;;;36.55;21.90;;;;;;;;;;5112647;28;20077;-66
2021/07/11 02:19:50;;;;;;;39.85;21.35;;;;;;;;;;5113011;28;20128;-66
2021/07/11 02:22:16;;;;;;;36.55;21.02;;;;;;;;;;5111233;28;20020;-66
2021/07/11 02:24:44;;;;;;;35.90;19.73;;;;;;;;;;5112930;28;20023;-66
2021/07/11 02:27:10;;;;;;;41.60;22.98;;;;;;;;;;5111755;28;20231;-66
2021/07/11 02:29:43;;;;;;;45.75;24.38;;;;;;;;;;5094615;28;20036;-66
2021/07/11 02:32:10;;;;;;;48.40;24.98;;;;;;;;;;5111348;28;20102;-66
2021/07/11 02:34:39;;;;;;;50.30;23.70;;;;;;;;;;5112641;28;20027;-66
2021/07/11 02:37:11;;;;;;;36.47;22.70;;;;;;;;;;5094010;28;20511;-66
2021/07/11 02:39:39;;;;;;;43.05;23.30;;;;;;;;;;5111513;28;20081;-66
2021/07/11 02:42:07;;;;;;;36.60;23.15;;;;;;;;;;5111708;28;20027;-66
2021/07/11 02:44:34;;;;;;;35.90;19.70;;;;;;;;;;5112743;28;20027;-66
2021/07/11 02:47:02;;;;;;;36.45;20.85;;;;;;;;;;5111420;28;20026;-66
2021/07/11 02:49:29;;;;;;;31.70;19.25;;;;;;;;;;5111719;28;20034;-66
2021/07/11 02:51:57;;;;;;;33.97;19.65;;;;;;;;;;5090074;28;20072;-66
2021/07/11 02:54:26;;;;;;;40.38;19.70;;;;;;;;;;5105422;28;20052;-66
2021/07/11 02:56:56;;;;;;;36.67;19.02;;;;;;;;;;5112149;28;20447;-66
2021/07/11 02:59:22;;;;;;;37.20;18.63;;;;;;;;;;5112108;28;20055;-66
2021/07/11 03:01:49;;;;;;;31.58;18.88;;;;;;;;;;5110918;28;20023;-66
2021/07/11 03:04:15;;;;;;;30.73;19.33;;;;;;;;;;5111589;28;20039;-66
2021/07/11 03:06:41;;;;;;;37.88;20.00;;;;;;;;;;5112508;28;20023;-66
2021/07/11 03:09:07;;;;;;;33.28;20.20;;;;;;;;;;5111606;28;20494;-66
2021/07/11 03:11:37;;;;;;;31.83;18.65;;;;;;;;;;5111455;27;20069;-66
2021/07/11 03:14:03;;;;;;;33.70;19.17;;;;;;;;;;5112270;28;20039;-66
2021/07/11 03:16:31;;;;;;;39.85;22.17;;;;;;;;;;5112433;28;20024;-66
2021/07/11 03:18:57;;;;;;;29.98;19.13;;;;;;;;;;5111033;28;20023;-66
2021/07/11 03:21:24;;;;;;;31.92;19.17;;;;;;;;;;5111017;28;20042;-66
2021/07/11 03:23:51;;;;;;;30.88;19.58;;;;;;;;;;5112366;28;20080;-65
2021/07/11 03:26:18;;;;;;;32.42;19.00;;;;;;;;;;5093694;28;20028;-66
2021/07/11 03:28:46;;;;;;;33.40;19.23;;;;;;;;;;5105969;28;20506;-66
2021/07/11 03:31:12;;;;;;;32.65;20.08;;;;;;;;;;5110036;28;20023;-66
2021/07/11 03:33:40;;;;;;;32.88;18.33;;;;;;;;;;5111072;28;20168;-66
2021/07/11 03:36:07;;;;;;;31.88;17.67;;;;;;;;;;5111550;28;20576;-66
2021/07/11 03:38:38;;;;;;;35.38;19.65;;;;;;;;;;5109953;28;20020;-66
2021/07/11 03:41:04;;;;;;;27.50;18.38;;;;;;;;;;5110519;28;20035;-66
2021/07/11 03:43:33;;;;;;;31.40;19.30;;;;;;;;;;5110747;28;20029;-66
2021/07/11 03:46:01;;;;;;;29.15;18.25;;;;;;;;;;5112274;28;20035;-66
2021/07/11 03:48:32;;;;;;;35.90;19.85;;;;;;;;;;5109858;28;20487;-66
2021/07/11 03:51:03;;;;;;;28.20;18.48;;;;;;;;;;5092362;28;20047;-66
2021/07/11 03:53:33;;;;;;;28.23;18.23;;;;;;;;;;5116092;27;20027;-66
2021/07/11 03:55:59;;;;;;;31.58;19.55;;;;;;;;;;5102000;28;20023;-66
2021/07/11 03:58:26;;;;;;;32.03;19.63;;;;;;;;;;5111273;28;20030;-66
2021/07/11 04:00:54;;;;;;;32.45;19.33;;;;;;;;;;5091911;28;20032;-66
2021/07/11 04:03:21;;;;;;;31.55;19.35;;;;;;;;;;5110474;28;20034;-66
2021/07/11 04:05:48;;;;;;;34.58;22.13;;;;;;;;;;5111514;28;20039;-66
2021/07/11 04:08:16;;;;;;;42.33;23.73;;;;;;;;;;5109826;28;20039;-66
2021/07/11 04:10:42;;;;;;;37.97;21.52;;;;;;;;;;5108703;28;20028;-66
2021/07/11 04:13:08;;;;;;;36.20;23.10;;;;;;;;;;5117535;27;20039;-66
2021/07/11 04:15:35;;;;;;;36.95;22.30;;;;;;;;;;5111055;28;20020;-66
2021/07/11 04:18:11;;;;;;;33.63;21.85;;;;;;;;;;5092016;28;20023;-66
2021/07/11 04:20:38;;;;;;;43.38;24.50;;;;;;;;;;5109876;28;20034;-66
2021/07/11 04:23:04;;;;;;;39.92;24.00;;;;;;;;;;5110609;28;20688;-66
2021/07/11 04:25:32;;;;;;;44.03;26.40;;;;;;;;;;5110720;28;20015;-66
2021/07/11 04:27:59;;;;;;;46.67;27.17;;;;;;;;;;5102679;28;20526;-66
2021/07/11 04:30:25;;;;;;;42.78;26.05;;;;;;;;;;5097516;28;20020;-66
2021/07/11 04:32:51;;;;;;;42.97;27.40;;;;;;;;;;5109083;28;20104;-66
2021/07/11 04:35:17;;;;;;;47.17;29.58;;;;;;;;;;5111281;28;20402;-66
2021/07/11 04:37:43;;;;;;;49.83;28.95;;;;;;;;;;5109160;28;20538;-66
2021/07/11 04:40:10;;;;;;;44.47;28.27;;;;;;;;;;5108443;28;20106;-66
2021/07/11 04:42:36;;;;;;;53.42;31.17;;;;;;;;;;5109302;28;20027;-66
2021/07/11 04:45:03;;;;;;;50.42;30.38;;;;;;;;;;5111462;28;20024;-66
2021/07/11 04:47:29;;;;;;;55.75;32.60;;;;;;;;;;5091497;28;20024;-66
2021/07/11 04:49:55;;;;;;;60.15;34.30;;;;;;;;;;5110060;28;20023;-66
2021/07/11 04:52:21;;;;;;;58.08;33.38;;;;;;;;;;5089531;28;20063;-65
2021/07/11 04:54:48;;;;;;;56.30;34.03;;;;;;;;;;5117723;27;20020;-65
2021/07/11 04:57:14;;;;;;;57.45;33.83;;;;;;;;;;5108554;28;20027;-66
2021/07/11 04:59:40;;;;;;;56.22;34.20;;;;;;;;;;5106460;28;20024;-66
2021/07/11 05:02:07;;;;;;;66.05;37.38;;;;;;;;;;5108065;28;20031;-66
2021/07/11 05:04:33;;;;;;;63.33;36.42;;;;;;;;;;5102214;28;20027;-66
2021/07/11 05:06:59;;;;;;;58.80;34.92;;;;;;;;;;5109679;28;20039;-66
2021/07/11 05:09:25;;;;;;;66.10;38.20;;;;;;;;;;5109139;28;20027;-66
2021/07/11 05:11:51;;;;;;;79.18;38.40;;;;;;;;;;5107564;28;20031;-66
2021/07/11 05:14:17;;;;;;;70.93;38.38;;;;;;;;;;5110032;28;20020;-66
2021/07/11 05:16:43;;;;;;;74.30;40.67;;;;;;;;;;5091736;28;20122;-66
2021/07/11 05:19:10;;;;;;;77.55;42.13;;;;;;;;;;5107421;28;20092;-65
2021/07/11 05:21:36;;;;;;;72.60;39.10;;;;;;;;;;5107283;28;20050;-66
2021/07/11 05:24:03;;;;;;;75.22;42.20;;;;;;;;;;5110599;28;20502;-66
2021/07/11 05:26:30;;;;;;;69.65;42.80;;;;;;;;;;5109594;28;20055;-66
2021/07/11 05:28:56;;;;;;;73.78;42.17;;;;;;;;;;5080334;28;20031;-65
2021/07/11 05:31:22;;;;;;;81.40;46.53;;;;;;;;;;5107035;28;20019;-65
2021/07/11 05:33:48;;;;;;;84.65;46.53;;;;;;;;;;5108083;28;20030;-65
2021/07/11 05:36:14;;;;;;;86.93;49.00;;;;;;;;;;5109915;28;20027;-65
2021/07/11 05:38:40;;;;;;;84.72;46.45;;;;;;;;;;5092457;28;20553;-65
2021/07/11 05:41:07;;;;;;;84.90;45.42;;;;;;;;;;5107738;28;20107;-66
2021/07/11 05:43:33;;;;;;;81.22;45.90;;;;;;;;;;5109464;28;20027;-66
2021/07/11 05:46:00;;;;;;;85.90;45.95;;;;;;;;;;5081159;28;20503;-66
2021/07/11 05:48:26;;;;;;;80.68;44.15;;;;;;;;;;5088927;28;20077;-65
2021/07/11 05:50:52;;;;;;;80.85;45.45;;;;;;;;;;5106849;28;20572;-65
2021/07/11 05:53:19;;;;;;;85.72;45.28;;;;;;;;;;5091250;28;20068;-65
2021/07/11 05:55:45;;;;;;;79.28;44.25;;;;;;;;;;5109787;28;20487;-66
2021/07/11 05:58:11;;;;;;;81.57;43.10;;;;;;;;;;5109882;28;20039;-66
2021/07/11 06:00:37;;;;;;;77.45;42.35;;;;;;;;;;5108241;28;20030;-66
2021/07/11 06:03:03;;;;;;;85.68;47.28;;;;;;;;;;5091831;28;20044;-66
2021/07/11 06:05:29;;;;;;;82.43;45.03;;;;;;;;;;5113411;28;20031;-66
2021/07/11 06:07:55;;;;;;;85.85;46.03;;;;;;;;;;5110558;28;20035;-66
2021/07/11 06:10:21;;;;;;;85.07;43.72;;;;;;;;;;5110154;28;20106;-65
2021/07/11 06:12:47;;;;;;;85.97;44.67;;;;;;;;;;5090231;28;20471;-66
2021/07/11 06:15:13;;;;;;;76.53;42.22;;;;;;;;;;5109871;28;20110;-66
2021/07/11 06:17:39;;;;;;;81.28;44.03;;;;;;;;;;5107848;28;20107;-66
2021/07/11 06:20:07;;;;;;;77.47;43.75;;;;;;;;;;5109713;28;20495;-66
2021/07/11 06:22:33;;;;;;;79.18;43.95;;;;;;;;;;5109074;27;20020;-66
2021/07/11 06:25:06;;;;;;;75.00;43.00;;;;;;;;;;5108364;28;20028;-66
2021/07/11 06:27:32;;;;;;;77.47;43.15;;;;;;;;;;5110304;28;20050;-67
2021/07/11 06:29:58;;;;;;;70.18;41.08;;;;;;;;;;5113019;28;20084;-66
2021/07/11 06:32:24;;;;;;;63.08;37.05;;;;;;;;;;5109051;28;20020;-66
2021/07/11 06:34:50;;;;;;;64.15;37.38;;;;;;;;;;5102579;28;20020;-66
2021/07/11 06:37:16;;;;;;;64.47;37.38;;;;;;;;;;5106707;28;20020;-66
2021/07/11 06:39:43;;;;;;;57.95;34.92;;;;;;;;;;5121952;27;20027;-66
2021/07/11 06:42:09;;;;;;;54.50;33.25;;;;;;;;;;5099123;28;20023;-66
2021/07/11 06:44:35;;;;;;;47.20;28.88;;;;;;;;;;5112085;28;20024;-66
2021/07/11 06:47:03;;;;;;;42.85;27.38;;;;;;;;;;5110025;28;20022;-65
2021/07/11 06:49:29;;;;;;;36.13;23.75;;;;;;;;;;5101206;28;20163;-66
2021/07/11 06:51:55;;;;;;;41.85;24.00;;;;;;;;;;5098348;28;20047;-65
2021/07/11 06:54:21;;;;;;;36.20;24.83;;;;;;;;;;5103071;28;20027;-66
2021/07/11 06:56:47;;;;;;;34.42;23.05;;;;;;;;;;5108902;28;20020;-66
2021/07/11 06:59:13;;;;;;;36.90;22.73;;;;;;;;;;5111431;28;20023;-66
2021/07/11 07:01:39;;;;;;;35.72;22.83;;;;;;;;;;5108794;28;20560;-65
2021/07/11 07:04:05;;;;;;;33.17;21.05;;;;;;;;;;5110892;28;20043;-66
2021/07/11 07:06:31;;;;;;;29.63;19.20;;;;;;;;;;5101198;28;20031;-66
2021/07/11 07:08:57;;;;;;;30.55;19.73;;;;;;;;;;5110025;28;20404;-65
2021/07/11 07:11:23;;;;;;;27.90;17.52;;;;;;;;;;5110025;28;20032;-66
2021/07/11 07:13:49;;;;;;;26.27;17.23;;;;;;;;;;5111422;28;20035;-65
2021/07/11 07:16:15;;;;;;;27.08;17.15;;;;;;;;;;5110119;28;20034;-65
2021/07/11 07:18:41;;;;;;;32.67;20.85;;;;;;;;;;5104709;28;20048;-65
2021/07/11 07:21:07;;;;;;;37.50;22.50;;;;;;;;;;5092522;28;20550;-66
2021/07/11 07:23:33;;;;;;;54.75;36.58;;;;;;;;;;5111454;28;20092;-65
2021/07/11 07:25:59;;;;;;;65.18;42.33;;;;;;;;;;5090428;28;20066;-66
2021/07/11 07:28:25;;;;;;;60.33;40.25;;;;;;;;;;5092255;28;20028;-66
2021/07/11 07:30:51;;;;;;;64.22;42.78;;;;;;;;;;5109151;28;20047;-65
2021/07/11 07:33:17;;;;;;;66.68;42.47;;;;;;;;;;5108199;28;20506;-65
2021/07/11 07:35:44;;;;;;;68.35;42.25;;;;;;;;;;5113268;27;20022;-66
2021/07/11 07:38:10;;;;;;;70.00;42.83;;;;;;;;;;5111265;27;20023;-65
2021/07/11 07:40:36;;;;;;;71.40;39.70;;;;;;;;;;5114727;27;20046;-66
2021/07/11 07:43:02;;;;;;;74.15;40.75;;;;;;;;;;5089379;28;20039;-66
2021/07/11 07:45:28;;;;;;;70.40;39.95;;;;;;;;;;5105921;28;20509;-65
2021/07/11 07:47:54;;;;;;;71.05;41.30;;;;;;;;;;5110765;28;20028;-65
2021/07/11 07:50:20;;;;;;;73.63;40.97;;;;;;;;;;5111540;28;20077;-65
2021/07/11 07:52:47;;;;;;;70.00;38.75;;;;;;;;;;5110136;28;20511;-65
2021/07/11 07:55:13;;;;;;;65.15;38.58;;;;;;;;;;5110869;28;20019;-65
2021/07/11 07:57:40;;;;;;;67.50;39.67;;;;;;;;;;5110932;28;20076;-66
2021/07/11 08:00:09;;;;;;;65.25;40.38;;;;;;;;;;5110427;28;20019;-66
2021/07/11 08:02:35;;;;;;;59.05;38.40;;;;;;;;;;5107556;28;20080;-64
2021/07/11 08:05:01;;;;;;;62.83;39.55;;;;;;;;;;5106894;28;20522;-65
2021/07/11 08:07:27;;;;;;;68.22;40.25;;;;;;;;;;5110212;28;20111;-65
2021/07/11 08:09:53;;;;;;;65.03;38.78;;;;;;;;;;5110161;28;20103;-65
2021/07/11 08:12:20;;;;;;;70.95;43.45;;;;;;;;;;5109386;27;20061;-65
2021/07/11 08:14:46;;;;;;;63.03;40.92;;;;;;;;;;5108949;28;20032;-65
2021/07/11 08:17:12;;;;;;;68.53;42.22;;;;;;;;;;5104723;28;20027;-65
2021/07/11 08:19:38;;;;;;;67.90;42.95;;;;;;;;;;5109903;28;20441;-65
2021/07/11 08:22:04;;;;;;;65.35;41.75;;;;;;;;;;5091225;28;20032;-65
2021/07/11 08:24:30;;;;;;;63.72;41.58;;;;;;;;;;5109223;28;20068;-65
2021/07/11 08:26:56;;;;;;;65.70;41.10;;;;;;;;;;5110713;28;20047;-65
2021/07/11 08:29:22;;;;;;;74.35;44.35;;;;;;;;;;5110031;28;20070;-65
2021/07/11 08:31:48;;;;;;;66.53;40.72;;;;;;;;;;5108898;28;20027;-65
2021/07/11 08:34:14;;;;;;;71.53;43.30;;;;;;;;;;5110586;28;20114;-65
2021/07/11 08:36:40;;;;;;;65.68;39.70;;;;;;;;;;5108136;28;20031;-65
2021/07/11 08:39:09;;;;;;;61.20;38.58;;;;;;;;;;5106720;28;20027;-65
2021/07/11 08:41:36;;;;;;;71.03;41.33;;;;;;;;;;5107677;28;20686;-65
2021/07/11 08:44:03;;;;;;;68.50;40.75;;;;;;;;;;5108381;28;20100;-65
2021/07/11 08:46:30;;;;;;;66.22;36.40;;;;;;;;;;5108943;28;20031;-65
2021/07/11 08:48:56;;;;;;;65.00;37.67;;;;;;;;;;5102893;28;20019;-65
2021/07/11 08:51:22;;;;;;;66.22;39.70;;;;;;;;;;5078823;28;20059;-65
2021/07/11 08:53:48;;;;;;;62.05;39.05;;;;;;;;;;5095410;28;20020;-65
2021/07/11 08:56:21;;;;;;;62.55;38.20;;;;;;;;;;5094630;28;20042;-65
2021/07/11 08:58:51;;;;;;;56.95;35.58;;;;;;;;;;5102038;28;20093;-65
2021/07/11 09:01:19;;;;;;;53.15;32.53;;;;;;;;;;5092924;28;20035;-65
2021/07/11 09:03:45;;;;;;;44.63;29.75;;;;;;;;;;5093788;28;20024;-64
2021/07/11 09:06:11;;;;;;;40.90;27.25;;;;;;;;;;5096003;28;20028;-65
2021/07/11 09:08:42;;;;;;;42.50;27.65;;;;;;;;;;5091385;28;20084;-65
2021/07/11 09:11:14;;;;;;;43.72;25.17;;;;;;;;;;5101696;28;20291;-65
2021/07/11 09:13:40;;;;;;;;;;;;;;;;;;5075105;28;20050;-64
2021/07/11 09:16:06;;;;;;;37.80;25.60;;;;;;;;;;5104777;28;20398;-65
2021/07/11 09:18:33;;;;;;;35.35;24.77;;;;;;;;;;5079030;28;20028;-65
2021/07/11 09:21:00;;;;;;;36.00;24.13;;;;;;;;;;5100787;28;20039;-64
2021/07/11 09:23:27;;;;;;;41.45;24.15;;;;;;;;;;5108333;28;20031;-64
2021/07/11 09:25:56;;;;;;;37.72;22.67;;;;;;;;;;5106495;28;20023;-64
2021/07/11 09:28:22;;;;;;;27.30;16.73;;;;;;;;;;5105224;28;20392;-64
2021/07/11 09:31:00;;;;;;;23.02;15.60;;;;;;;;;;5105270;28;20077;-64
2021/07/11 09:33:26;;;;;;;25.70;17.35;;;;;;;;;;5085534;28;20180;-64
2021/07/11 09:35:52;;;;;;;23.15;14.85;;;;;;;;;;5103164;28;20108;-64
2021/07/11 09:38:27;;;;;;;22.13;14.55;;;;;;;;;;5109616;28;20679;-64
2021/07/11 09:40:53;;;;;;;18.77;13.00;;;;;;;;;;5107820;27;20506;-65
2021/07/11 09:43:19;;;;;;;30.40;20.75;;;;;;;;;;5114081;28;20063;-64
2021/07/11 09:45:45;;;;;;;33.20;22.58;;;;;;;;;;5087631;28;20035;-64
2021/07/11 09:48:11;;;;;;;31.63;22.15;;;;;;;;;;5110963;28;20024;-64
2021/07/11 09:50:38;;;;;;;34.47;22.63;;;;;;;;;;5092096;28;20111;-64
2021/07/11 09:53:06;;;;;;;30.08;19.88;;;;;;;;;;5117125;27;20027;-64
2021/07/11 09:55:33;;;;;;;27.80;17.45;;;;;;;;;;5111159;28;20015;-64
2021/07/11 09:58:00;;;;;;;25.45;18.45;;;;;;;;;;5112216;28;20028;-64
2021/07/11 10:00:27;;;;;;;23.55;15.73;;;;;;;;;;5112160;28;20503;-64
2021/07/11 10:03:05;;;;;;;24.55;18.45;;;;;;;;;;5106878;28;20057;-63
2021/07/11 10:05:31;;;;;;;30.80;21.30;;;;;;;;;;5108723;28;20015;-64
2021/07/11 10:07:58;;;;;;;35.38;23.63;;;;;;;;;;5111554;28;20149;-64
2021/07/11 10:10:26;;;;;;;32.65;21.98;;;;;;;;;;5108569;27;20023;-65
2021/07/11 10:12:52;;;;;;;39.45;25.92;;;;;;;;;;5108153;28;20012;-64
2021/07/11 10:15:20;;;;;;;39.42;24.75;;;;;;;;;;5093128;28;20078;-64
2021/07/11 10:17:49;;;;;;;34.20;22.13;;;;;;;;;;5110029;28;20024;-64
2021/07/11 10:20:17;;;;;;;34.05;21.90;;;;;;;;;;5109813;28;20027;-64
2021/07/11 10:22:48;;;;;;;30.48;20.77;;;;;;;;;;5091704;28;20106;-64
2021/07/11 10:25:15;;;;;;;26.92;17.95;;;;;;;;;;5094967;28;20023;-65
2021/07/11 10:27:41;;;;;;;26.20;18.02;;;;;;;;;;5111132;28;20024;-64
2021/07/11 10:30:07;;;;;;;22.77;15.68;;;;;;;;;;5101655;28;20028;-64
2021/07/11 10:32:34;;;;;;;20.67;14.00;;;;;;;;;;5103807;28;20020;-64
2021/07/11 10:35:08;;;;;;;20.88;13.60;;;;;;;;;;5096093;28;20479;-64
2021/07/11 10:37:48;;;;;;;17.67;12.80;;;;;;;;;;5092856;28;20019;-64
2021/07/11 10:40:16;;;;;;;16.00;11.35;;;;;;;;;;5123707;27;20068;-65
2021/07/11 10:42:42;;;;;;;15.43;10.82;;;;;;;;;;5091894;28;20023;-65
2021/07/11 10:45:10;;;;;;;18.25;13.25;;;;;;;;;;5106042;28;20024;-64
2021/07/11 10:47:37;;;;;;;16.95;10.60;;;;;;;;;;5106451;28;20023;-64
2021/07/11 10:50:04;;;;;;;15.52;9.55;;;;;;;;;;5102946;28;20028;-64
2021/07/11 10:52:30;;;;;;;19.80;12.73;;;;;;;;;;5086110;28;20232;-64
2021/07/11 10:54:57;;;;;;;20.48;13.15;;;;;;;;;;5100406;28;20048;-64
2021/07/11 10:57:26;;;;;;;18.23;11.68;;;;;;;;;;5106305;28;20019;-64
2021/07/11 10:59:52;;;;;;;14.68;8.75;;;;;;;;;;5108484;28;20020;-64
2021/07/11 11:02:20;;;;;;;16.73;11.13;;;;;;;;;;5104777;28;20047;-64
2021/07/11 11:04:47;;;;;;;19.88;12.55;;;;;;;;;;5109112;28;20035;-65
2021/07/11 11:07:14;;;;;;;24.65;15.65;;;;;;;;;;5108326;28;20059;-64
2021/07/11 11:09:40;;;;;;;29.65;19.08;;;;;;;;;;5108502;28;20023;-64
2021/07/11 11:12:26;;;;;;;24.08;16.60;;;;;;;;;;5105081;28;20024;-64
2021/07/11 11:14:57;;;;;;;24.38;15.55;;;;;;;;;;5106065;28;20320;-64
2021/07/11 11:17:30;;;;;;;26.95;16.30;;;;;;;;;;5100063;28;20023;-64
2021/07/11 11:19:57;;;;;;;24.52;16.38;;;;;;;;;;5104940;28;20080;-64
2021/07/11 11:22:24;;;;;;;24.80;15.85;;;;;;;;;;5098390;28;20031;-64
2021/07/11 11:24:50;;;;;;;20.55;14.02;;;;;;;;;;5110959;28;20176;-64
2021/07/11 11:27:28;;;;;;;20.58;12.38;;;;;;;;;;5091365;28;20096;-64
2021/07/11 11:29:54;;;;;;;22.55;13.45;;;;;;;;;;5110236;28;20101;-64
2021/07/11 11:32:27;;;;;;;17.48;10.43;;;;;;;;;;5090216;27;20043;-65
2021/07/11 11:34:53;;;;;;;17.95;11.43;;;;;;;;;;5110778;28;20031;-65
2021/07/11 11:37:19;;;;;;;18.83;11.40;;;;;;;;;;5111650;27;20012;-65
2021/07/11 11:39:45;;;;;;;19.25;12.50;;;;;;;;;;5082968;28;20380;-65
2021/07/11 11:42:11;;;;;;;18.00;12.63;;;;;;;;;;5104873;28;20034;-64
2021/07/11 11:44:37;;;;;;;18.77;11.75;;;;;;;;;;5107231;28;20023;-64
2021/07/11 11:47:03;;;;;;;21.35;13.10;;;;;;;;;;5107106;28;20035;-64
2021/07/11 11:49:30;;;;;;;17.48;11.88;;;;;;;;;;5105367;28;20036;-65
2021/07/11 11:51:58;;;;;;;21.88;15.15;;;;;;;;;;5093389;28;20047;-65
2021/07/11 11:54:30;;;;;;;22.67;16.33;;;;;;;;;;5110704;28;20503;-64
2021/07/11 11:56:59;;;;;;;19.60;12.25;;;;;;;;;;5109681;28;20242;-65
2021/07/11 11:59:26;;;;;;;20.08;12.70;;;;;;;;;;5089699;28;20495;-64
2021/07/11 12:01:58;;;;;;;18.33;10.68;;;;;;;;;;5107128;28;20470;-64
2021/07/11 12:04:25;;;;;;;18.58;12.18;;;;;;;;;;5108589;28;20020;-64
2021/07/11 12:06:52;;;;;;;27.75;17.80;;;;;;;;;;5107849;28;20023;-64
2021/07/11 12:09:19;;;;;;;17.92;11.73;;;;;;;;;;5107767;28;20027;-64
2021/07/11 12:11:55;;;;;;;16.30;9.98;;;;;;;;;;5107435;27;20027;-64
2021/07/11 12:14:21;;;;;;;16.92;10.23;;;;;;;;;;5108727;28;20092;-64
2021/07/11 12:16:55;;;;;;;30.67;19.63;;;;;;;;;;5109336;28;20458;-64
2021/07/11 12:19:21;;;;;;;32.50;20.30;;;;;;;;;;5106478;28;20028;-64
2021/07/11 12:21:48;;;;;;;26.80;19.38;;;;;;;;;;5084167;28;20024;-64
2021/07/11 12:24:17;;;;;;;28.23;20.27;;;;;;;;;;5107354;28;20138;-64
2021/07/11 12:26:45;;;;;;;36.55;25.92;;;;;;;;;;5087433;28;20545;-64
2021/07/11 12:29:11;;;;;;;36.72;25.67;;;;;;;;;;5107690;28;20452;-64
2021/07/11 12:31:38;;;;;;;37.92;24.15;;;;;;;;;;5105695;28;20023;-64
2021/07/11 12:34:05;;;;;;;35.80;22.13;;;;;;;;;;5099618;28;20016;-64
2021/07/11 12:36:32;;;;;;;34.83;23.30;;;;;;;;;;5103859;28;20027;-64
2021/07/11 12:38:59;;;;;;;34.58;23.00;;;;;;;;;;5107673;28;20027;-64
2021/07/11 12:41:26;;;;;;;37.10;23.10;;;;;;;;;;5102372;27;20403;-64
2021/07/11 12:44:02;;;;;;;34.30;21.83;;;;;;;;;;5094784;28;20016;-64
2021/07/11 12:46:29;;;;;;;33.92;23.05;;;;;;;;;;5085566;27;20414;-64
2021/07/11 12:48:56;;;;;;;33.13;19.40;;;;;;;;;;5104732;27;20031;-64
2021/07/11 12:51:26;;;;;;;32.92;20.20;;;;;;;;;;5087842;27;20024;-64
2021/07/11 12:53:56;;;;;;;30.85;19.35;;;;;;;;;;5115518;27;20027;-64
2021/07/11 12:56:24;;;;;;;25.42;18.10;;;;;;;;;;5096017;28;20169;-64
2021/07/11 12:58:50;;;;;;;27.58;18.50;;;;;;;;;;5092408;28;20184;-64
2021/07/11 13:01:17;;;;;;;32.50;19.83;;;;;;;;;;5098383;28;20028;-63
2021/07/11 13:03:43;;;;;;;26.65;19.17;;;;;;;;;;5099734;28;20020;-63
2021/07/11 13:06:13;;;;;;;26.35;18.33;;;;;;;;;;5091029;28;20028;-63
2021/07/11 13:08:40;;;;;;;31.27;18.42;;;;;;;;;;5108946;28;20035;-64
2021/07/11 13:11:06;;;;;;;26.95;17.88;;;;;;;;;;5086016;28;20061;-64
2021/07/11 13:13:32;;;;;;;25.75;17.50;;;;;;;;;;5105788;28;20076;-64
2021/07/11 13:15:58;;;;;;;27.77;20.15;;;;;;;;;;5105812;28;20028;-64
2021/07/11 13:18:24;;;;;;;28.13;19.73;;;;;;;;;;5109636;28;20104;-64
2021/07/11 13:20:50;;;;;;;31.73;20.17;;;;;;;;;;5105266;28;20120;-64
2021/07/11 13:23:16;;;;;;;31.55;21.73;;;;;;;;;;5101419;27;20040;-64
2021/07/11 13:25:42;;;;;;;31.02;21.05;;;;;;;;;;5108801;28;20031;-65
2021/07/11 13:28:10;;;;;;;29.80;21.60;;;;;;;;;;5105130;28;20111;-65
2021/07/11 13:30:36;;;;;;;31.92;20.88;;;;;;;;;;5108437;28;20019;-65
2021/07/11 13:33:02;;;;;;;34.67;20.17;;;;;;;;;;5104246;28;20023;-64
2021/07/11 13:35:28;;;;;;;26.25;19.23;;;;;;;;;;5105721;28;20063;-64
2021/07/11 13:37:54;;;;;;;28.63;19.05;;;;;;;;;;5084605;28;20769;-64
2021/07/11 13:40:21;;;;;;;29.35;19.45;;;;;;;;;;5106464;28;20027;-64
2021/07/11 13:42:47;;;;;;;28.17;20.13;;;;;;;;;;5092237;28;20016;-64
2021/07/11 13:45:15;;;;;;;29.35;18.88;;;;;;;;;;5091541;28;20483;-64
2021/07/11 13:47:42;;;;;;;29.30;18.27;;;;;;;;;;5093894;28;20562;-64
2021/07/11 13:50:09;;;;;;;29.88;21.60;;;;;;;;;;5099800;28;20169;-64
2021/07/11 13:52:36;;;;;;;32.67;21.83;;;;;;;;;;5081264;28;20042;-63
2021/07/11 13:55:02;;;;;;;28.00;19.63;;;;;;;;;;5102985;28;20035;-64
2021/07/11 13:57:28;;;;;;;27.38;19.10;;;;;;;;;;5090028;28;20027;-64
2021/07/11 13:59:54;;;;;;;27.45;18.60;;;;;;;;;;5085030;28;20033;-64
2021/07/11 14:02:20;;;;;;;29.05;19.38;;;;;;;;;;5102951;28;20165;-64
2021/07/11 14:04:47;;;;;;;26.20;18.75;;;;;;;;;;5084131;28;20089;-64
2021/07/11 14:07:14;;;;;;;25.65;17.40;;;;;;;;;;5103587;28;20483;-64
2021/07/11 14:09:40;;;;;;;24.73;16.30;;;;;;;;;;5106073;28;20023;-64
2021/07/11 14:12:07;;;;;;;22.48;16.25;;;;;;;;;;5083465;28;20142;-65
2021/07/11 14:14:33;;;;;;;27.00;18.05;;;;;;;;;;5102729;28;20038;-65
2021/07/11 14:16:59;;;;;;;26.23;17.73;;;;;;;;;;5105518;28;20035;-64